sensor_id;sensor_type;location;lat;lon;timestamp;pressure;altitude;pressure_sealevel;temperature;humidity
11985;BME280;6052;53.246;10.368;2023-04-09T00:00:11;102282.25;;;10.32;100.00
11985;BME280;6052;53.246;10.368;2023-04-09T00:02:41;102288.41;;;10.26;100.00
11985;BME280;6052;53.246;10.368;2023-04-09T00:05:13;102286.16;;;10.30;100.00
11985;BME280;6052;53.246;10.368;2023-04-09T00:07:42;102293.16;;;10.24;100.00
11985;BME280;6052;53.246;10.368;2023-04-09T00:10:12;102284.59;;;10.14;100.00
11985;BME280;6052;53.246;10.368;2023-04-09T00:12:41;102291.19;;;10.12;100.00
11985;BME280;6052;53.246;10.368;2023-04-09T00:15:10;102289.94;;;10.08;100.00
11985;BME280;6052;53.246;10.368;2023-04-09T00:17:56;102288.72;;;10.10;100.00
11985;BME280;6052;53.246;10.368;2023-04-09T00:20:28;102286.47;;;10.14;100.00
11985;BME280;6052;53.246;10.368;2023-04-09T00:22:57;102274.41;;;10.31;100.00
11985;BME280;6052;53.246;10.368;2023-04-09T00:25:27;102285.06;;;10.18;100.00
11985;BME280;6052;53.246;10.368;2023-04-09T00:27:56;102282.25;;;10.32;100.00
11985;BME280;6052;53.246;10.368;2023-04-09T00:30:27;102282.50;;;10.37;100.00
11985;BME280;6052;53.246;10.368;2023-04-09T00:32:57;102276.94;;;10.39;100.00
11985;BME280;6052;53.246;10.368;2023-04-09T00:35:29;102275.53;;;10.43;100.00
11985;BME280;6052;53.246;10.368;2023-04-09T00:37:58;102271.19;;;10.42;100.00
11985;BME280;6052;53.246;10.368;2023-04-09T00:40:28;102274.44;;;10.37;100.00
11985;BME280;6052;53.246;10.368;2023-04-09T00:42:57;102274.69;;;10.42;100.00
11985;BME280;6052;53.246;10.368;2023-04-09T00:45:27;102274.13;;;10.47;100.00
11985;BME280;6052;53.246;10.368;2023-04-09T00:47:57;102281.41;;;10.59;100.00
11985;BME280;6052;53.246;10.368;2023-04-09T00:50:29;102277.53;;;10.68;100.00
11985;BME280;6052;53.246;10.368;2023-04-09T00:52:59;102270.50;;;10.67;100.00
11985;BME280;6052;53.246;10.368;2023-04-09T00:55:29;102278.53;;;10.67;100.00
11985;BME280;6052;53.246;10.368;2023-04-09T00:57:59;102272.59;;;10.72;100.00
11985;BME280;6052;53.246;10.368;2023-04-09T01:00:28;102267.66;;;10.75;100.00
11985;BME280;6052;53.246;10.368;2023-04-09T01:02:58;102273.22;;;10.74;100.00
11985;BME280;6052;53.246;10.368;2023-04-09T01:05:37;102269.91;;;10.72;100.00
11985;BME280;6052;53.246;10.368;2023-04-09T01:08:17;102269.25;;;10.70;100.00
11985;BME280;6052;53.246;10.368;2023-04-09T01:10:55;102278.53;;;10.67;100.00
11985;BME280;6052;53.246;10.368;2023-04-09T01:13:29;102277.09;;;10.65;100.00
11985;BME280;6052;53.246;10.368;2023-04-09T01:16:03;102276.03;;;10.59;100.00
11985;BME280;6052;53.246;10.368;2023-04-09T01:18:36;102272.75;;;10.64;100.00
11985;BME280;6052;53.246;10.368;2023-04-09T01:21:13;102278.78;;;10.66;100.00
11985;BME280;6052;53.246;10.368;2023-04-09T01:23:46;102270.31;;;10.69;100.00
11985;BME280;6052;53.246;10.368;2023-04-09T01:26:34;102275.44;;;10.64;100.00
11985;BME280;6052;53.246;10.368;2023-04-09T01:29:09;102267.03;;;10.73;100.00
11985;BME280;6052;53.246;10.368;2023-04-09T01:31:40;102271.75;;;10.71;100.00
11985;BME280;6052;53.246;10.368;2023-04-09T01:34:11;102268.00;;;10.59;100.00
11985;BME280;6052;53.246;10.368;2023-04-09T01:36:46;102264.88;;;10.62;100.00
11985;BME280;6052;53.246;10.368;2023-04-09T01:39:17;102260.94;;;10.58;100.00
11985;BME280;6052;53.246;10.368;2023-04-09T01:41:47;102254.09;;;10.56;100.00
11985;BME280;6052;53.246;10.368;2023-04-09T01:44:22;102259.72;;;10.61;100.00
11985;BME280;6052;53.246;10.368;2023-04-09T01:46:53;102254.78;;;10.64;100.00
11985;BME280;6052;53.246;10.368;2023-04-09T01:49:23;102260.28;;;10.50;100.00
11985;BME280;6052;53.246;10.368;2023-04-09T01:51:52;102255.31;;;10.47;100.00
11985;BME280;6052;53.246;10.368;2023-04-09T01:54:22;102257.44;;;10.58;100.00
11985;BME280;6052;53.246;10.368;2023-04-09T01:56:52;102259.00;;;10.46;100.00
11985;BME280;6052;53.246;10.368;2023-04-09T01:59:24;102253.63;;;10.39;100.00
11985;BME280;6052;53.246;10.368;2023-04-09T02:01:58;102255.38;;;10.26;100.00
11985;BME280;6052;53.246;10.368;2023-04-09T02:04:32;102249.00;;;10.27;100.00
11985;BME280;6052;53.246;10.368;2023-04-09T02:07:04;102251.50;;;10.35;100.00
11985;BME280;6052;53.246;10.368;2023-04-09T02:09:36;102250.06;;;10.32;100.00
11985;BME280;6052;53.246;10.368;2023-04-09T02:12:11;102246.81;;;10.37;100.00
11985;BME280;6052;53.246;10.368;2023-04-09T02:14:45;102244.34;;;10.42;100.00
11985;BME280;6052;53.246;10.368;2023-04-09T02:17:14;102242.31;;;10.16;100.00
11985;BME280;6052;53.246;10.368;2023-04-09T02:19:45;102241.81;;;10.34;100.00
11985;BME280;6052;53.246;10.368;2023-04-09T02:22:15;102242.66;;;10.34;100.00
11985;BME280;6052;53.246;10.368;2023-04-09T02:24:45;102250.81;;;10.20;100.00
11985;BME280;6052;53.246;10.368;2023-04-09T02:27:14;102242.91;;;9.91;100.00
11985;BME280;6052;53.246;10.368;2023-04-09T02:29:46;102251.50;;;10.35;100.00
11985;BME280;6052;53.246;10.368;2023-04-09T02:32:16;102247.13;;;10.27;100.00
11985;BME280;6052;53.246;10.368;2023-04-09T02:34:45;102247.31;;;10.26;100.00
11985;BME280;6052;53.246;10.368;2023-04-09T02:37:15;102244.53;;;10.40;100.00
11985;BME280;6052;53.246;10.368;2023-04-09T02:39:44;102243.94;;;10.45;100.00
11985;BME280;6052;53.246;10.368;2023-04-09T02:42:13;102246.00;;;10.43;100.00
11985;BME280;6052;53.246;10.368;2023-04-09T02:44:43;102244.72;;;10.39;100.00
11985;BME280;6052;53.246;10.368;2023-04-09T02:47:15;102240.88;;;10.48;100.00
11985;BME280;6052;53.246;10.368;2023-04-09T02:49:44;102239.22;;;10.47;100.00
11985;BME280;6052;53.246;10.368;2023-04-09T02:52:13;102244.16;;;10.50;100.00
11985;BME280;6052;53.246;10.368;2023-04-09T02:54:45;102243.13;;;10.51;100.00
11985;BME280;6052;53.246;10.368;2023-04-09T02:57:14;102236.91;;;10.44;100.00
11985;BME280;6052;53.246;10.368;2023-04-09T02:59:44;102229.44;;;10.33;100.00
11985;BME280;6052;53.246;10.368;2023-04-09T03:02:16;102225.75;;;10.40;100.00
11985;BME280;6052;53.246;10.368;2023-04-09T03:04:46;102226.25;;;10.57;100.00
11985;BME280;6052;53.246;10.368;2023-04-09T03:07:15;102227.88;;;10.51;100.00
11985;BME280;6052;53.246;10.368;2023-04-09T03:09:44;102225.16;;;10.45;100.00
11985;BME280;6052;53.246;10.368;2023-04-09T03:12:14;102222.03;;;10.41;100.00
11985;BME280;6052;53.246;10.368;2023-04-09T03:14:43;102223.72;;;10.49;100.00
11985;BME280;6052;53.246;10.368;2023-04-09T03:17:12;102224.91;;;10.40;100.00
11985;BME280;6052;53.246;10.368;2023-04-09T03:19:44;102229.91;;;10.43;100.00
11985;BME280;6052;53.246;10.368;2023-04-09T03:22:14;102223.88;;;10.34;100.00
11985;BME280;6052;53.246;10.368;2023-04-09T03:24:43;102222.84;;;10.35;100.00
11985;BME280;6052;53.246;10.368;2023-04-09T03:27:12;102224.75;;;10.48;100.00
11985;BME280;6052;53.246;10.368;2023-04-09T03:29:42;102225.09;;;10.32;100.00
11985;BME280;6052;53.246;10.368;2023-04-09T03:32:11;102229.00;;;10.29;100.00
11985;BME280;6052;53.246;10.368;2023-04-09T03:34:46;102225.47;;;10.29;100.00
11985;BME280;6052;53.246;10.368;2023-04-09T03:37:16;102226.19;;;10.44;100.00
11985;BME280;6052;53.246;10.368;2023-04-09T03:39:45;102224.75;;;10.48;100.00
11985;BME280;6052;53.246;10.368;2023-04-09T03:42:14;102221.88;;;10.56;100.00
11985;BME280;6052;53.246;10.368;2023-04-09T03:44:44;102224.94;;;10.46;100.00
11985;BME280;6052;53.246;10.368;2023-04-09T03:47:13;102230.13;;;10.48;100.00
11985;BME280;6052;53.246;10.368;2023-04-09T03:49:42;102226.41;;;10.49;100.00
11985;BME280;6052;53.246;10.368;2023-04-09T03:52:14;102227.59;;;10.40;100.00
11985;BME280;6052;53.246;10.368;2023-04-09T03:54:43;102228.41;;;10.34;100.00
11985;BME280;6052;53.246;10.368;2023-04-09T03:57:13;102223.78;;;10.21;100.00
11985;BME280;6052;53.246;10.368;2023-04-09T03:59:42;102220.34;;;10.34;100.00
11985;BME280;6052;53.246;10.368;2023-04-09T04:02:12;102226.59;;;10.47;100.00
11985;BME280;6052;53.246;10.368;2023-04-09T04:04:41;102221.19;;;10.41;100.00
11985;BME280;6052;53.246;10.368;2023-04-09T04:07:13;102218.31;;;10.42;100.00
11985;BME280;6052;53.246;10.368;2023-04-09T04:09:43;102215.00;;;10.40;100.00
11985;BME280;6052;53.246;10.368;2023-04-09T04:12:12;102232.63;;;10.15;100.00
11985;BME280;6052;53.246;10.368;2023-04-09T04:14:41;102224.06;;;10.33;100.00
11985;BME280;6052;53.246;10.368;2023-04-09T04:17:11;102210.47;;;10.41;100.00
11985;BME280;6052;53.246;10.368;2023-04-09T04:19:40;102216.84;;;10.40;100.00
11985;BME280;6052;53.246;10.368;2023-04-09T04:22:14;102212.91;;;10.36;100.00
11985;BME280;6052;53.246;10.368;2023-04-09T04:24:44;102211.88;;;10.30;100.00
11985;BME280;6052;53.246;10.368;2023-04-09T04:27:13;102205.13;;;10.13;100.00
11985;BME280;6052;53.246;10.368;2023-04-09T04:29:45;102226.03;;;10.18;100.00
11985;BME280;6052;53.246;10.368;2023-04-09T04:32:14;102232.84;;;10.20;100.00
11985;BME280;6052;53.246;10.368;2023-04-09T04:34:47;102230.28;;;10.40;100.00
11985;BME280;6052;53.246;10.368;2023-04-09T04:37:19;102225.91;;;10.32;100.00
11985;BME280;6052;53.246;10.368;2023-04-09T04:39:49;102225.72;;;10.34;100.00
11985;BME280;6052;53.246;10.368;2023-04-09T04:42:18;102235.66;;;10.40;100.00
11985;BME280;6052;53.246;10.368;2023-04-09T04:44:48;102230.22;;;10.27;100.00
11985;BME280;6052;53.246;10.368;2023-04-09T04:47:17;102232.06;;;10.26;100.00
11985;BME280;6052;53.246;10.368;2023-04-09T04:49:47;102236.06;;;10.43;100.00
11985;BME280;6052;53.246;10.368;2023-04-09T04:52:19;102235.59;;;10.33;100.00
11985;BME280;6052;53.246;10.368;2023-04-09T04:54:48;102238.91;;;10.29;100.00
11985;BME280;6052;53.246;10.368;2023-04-09T04:57:18;102239.56;;;10.37;100.00
11985;BME280;6052;53.246;10.368;2023-04-09T04:59:47;102239.22;;;10.47;100.00
11985;BME280;6052;53.246;10.368;2023-04-09T05:02:16;102242.91;;;10.46;100.00
11985;BME280;6052;53.246;10.368;2023-04-09T05:04:46;102233.16;;;10.32;100.00
11985;BME280;6052;53.246;10.368;2023-04-09T05:07:15;102229.38;;;10.26;100.00
11985;BME280;6052;53.246;10.368;2023-04-09T05:09:47;102235.59;;;10.27;100.00
11985;BME280;6052;53.246;10.368;2023-04-09T05:12:17;102225.47;;;10.29;100.00
11985;BME280;6052;53.246;10.368;2023-04-09T05:14:46;102235.84;;;10.38;100.00
11985;BME280;6052;53.246;10.368;2023-04-09T05:17:15;102235.19;;;10.30;100.00
11985;BME280;6052;53.246;10.368;2023-04-09T05:19:49;102234.22;;;10.10;100.00
11985;BME280;6052;53.246;10.368;2023-04-09T05:22:20;102238.22;;;9.93;100.00
11985;BME280;6052;53.246;10.368;2023-04-09T05:24:52;102243.41;;;10.28;100.00
11985;BME280;6052;53.246;10.368;2023-04-09T05:27:22;102245.06;;;10.23;100.00
11985;BME280;6052;53.246;10.368;2023-04-09T05:29:54;102248.84;;;10.35;100.00
11985;BME280;6052;53.246;10.368;2023-04-09T05:32:26;102248.06;;;10.13;100.00
11985;BME280;6052;53.246;10.368;2023-04-09T05:34:56;102254.97;;;10.01;100.00
11985;BME280;6052;53.246;10.368;2023-04-09T05:37:25;102251.38;;;9.88;100.00
11985;BME280;6052;53.246;10.368;2023-04-09T05:39:57;102254.41;;;10.06;100.00
11985;BME280;6052;53.246;10.368;2023-04-09T05:42:33;102252.94;;;10.31;100.00
11985;BME280;6052;53.246;10.368;2023-04-09T05:45:04;102255.38;;;10.26;100.00
11985;BME280;6052;53.246;10.368;2023-04-09T05:47:34;102247.09;;;10.21;100.00
11985;BME280;6052;53.246;10.368;2023-04-09T05:50:04;102250.38;;;10.16;100.00
11985;BME280;6052;53.246;10.368;2023-04-09T05:52:34;102259.94;;;10.25;100.00
11985;BME280;6052;53.246;10.368;2023-04-09T05:55:07;102261.63;;;10.33;100.00
11985;BME280;6052;53.246;10.368;2023-04-09T05:57:36;102259.03;;;10.18;100.00
11985;BME280;6052;53.246;10.368;2023-04-09T06:00:08;102261.28;;;10.15;100.00
11985;BME280;6052;53.246;10.368;2023-04-09T06:02:37;102263.97;;;10.15;100.00
11985;BME280;6052;53.246;10.368;2023-04-09T06:05:08;102259.84;;;9.91;100.00
11985;BME280;6052;53.246;10.368;2023-04-09T06:07:37;102260.03;;;9.90;100.00
11985;BME280;6052;53.246;10.368;2023-04-09T06:10:09;102259.31;;;10.02;100.00
11985;BME280;6052;53.246;10.368;2023-04-09T06:12:39;102255.91;;;9.45;100.00
11985;BME280;6052;53.246;10.368;2023-04-09T06:15:10;102257.13;;;9.64;100.00
11985;BME280;6052;53.246;10.368;2023-04-09T06:17:39;102258.44;;;9.95;100.00
11985;BME280;6052;53.246;10.368;2023-04-09T06:20:09;102256.44;;;10.04;100.00
11985;BME280;6052;53.246;10.368;2023-04-09T06:22:39;102260.81;;;9.84;100.00
11985;BME280;6052;53.246;10.368;2023-04-09T06:25:11;102262.28;;;10.07;100.00
11985;BME280;6052;53.246;10.368;2023-04-09T06:27:40;102263.84;;;10.02;100.00
11985;BME280;6052;53.246;10.368;2023-04-09T06:30:10;102269.78;;;9.97;100.00
11985;BME280;6052;53.246;10.368;2023-04-09T06:32:40;102269.94;;;9.89;100.00
11985;BME280;6052;53.246;10.368;2023-04-09T06:35:20;102282.44;;;10.03;100.00
11985;BME280;6052;53.246;10.368;2023-04-09T06:37:50;102277.00;;;10.18;100.00
11985;BME280;6052;53.246;10.368;2023-04-09T06:40:21;102273.31;;;10.19;100.00
11985;BME280;6052;53.246;10.368;2023-04-09T06:42:51;102278.84;;;10.17;100.00
11985;BME280;6052;53.246;10.368;2023-04-09T06:45:21;102275.09;;;10.12;100.00
11985;BME280;6052;53.246;10.368;2023-04-09T06:47:50;102286.34;;;10.28;100.00
11985;BME280;6052;53.246;10.368;2023-04-09T06:50:20;102280.78;;;10.02;100.00
11985;BME280;6052;53.246;10.368;2023-04-09T06:52:50;102290.22;;;10.19;100.00
11985;BME280;6052;53.246;10.368;2023-04-09T06:55:22;102283.72;;;10.35;100.00
11985;BME280;6052;53.246;10.368;2023-04-09T06:57:52;102278.84;;;10.17;100.00
11985;BME280;6052;53.246;10.368;2023-04-09T07:00:21;102290.31;;;10.05;100.00
11985;BME280;6052;53.246;10.368;2023-04-09T07:02:52;102288.97;;;10.15;100.00
11985;BME280;6052;53.246;10.368;2023-04-09T07:05:22;102292.09;;;10.19;100.00
11985;BME280;6052;53.246;10.368;2023-04-09T07:07:52;102284.81;;;10.13;100.00
11985;BME280;6052;53.246;10.368;2023-04-09T07:10:24;102287.75;;;10.18;100.00
11985;BME280;6052;53.246;10.368;2023-04-09T07:12:53;102287.09;;;10.16;100.00
11985;BME280;6052;53.246;10.368;2023-04-09T07:15:23;102295.53;;;9.92;100.00
11985;BME280;6052;53.246;10.368;2023-04-09T07:17:52;102283.94;;;9.85;100.00
11985;BME280;6052;53.246;10.368;2023-04-09T07:20:23;102291.25;;;9.97;100.00
11985;BME280;6052;53.246;10.368;2023-04-09T07:22:52;102284.81;;;9.92;100.00
11985;BME280;6052;53.246;10.368;2023-04-09T07:25:24;102288.31;;;9.92;100.00
11985;BME280;6052;53.246;10.368;2023-04-09T07:27:53;102292.22;;;9.90;100.00
11985;BME280;6052;53.246;10.368;2023-04-09T07:30:23;102295.94;;;9.89;100.00
11985;BME280;6052;53.246;10.368;2023-04-09T07:32:52;102291.50;;;10.02;100.00
11985;BME280;6052;53.246;10.368;2023-04-09T07:35:22;102292.28;;;9.96;100.00
11985;BME280;6052;53.246;10.368;2023-04-09T07:37:51;102291.41;;;10.10;100.00
11985;BME280;6052;53.246;10.368;2023-04-09T07:40:23;102292.34;;;10.03;100.00
11985;BME280;6052;53.246;10.368;2023-04-09T07:42:53;102292.47;;;9.95;100.00
11985;BME280;6052;53.246;10.368;2023-04-09T07:45:23;102293.00;;;9.84;100.00
11985;BME280;6052;53.246;10.368;2023-04-09T07:47:52;102289.28;;;9.85;100.00
11985;BME280;6052;53.246;10.368;2023-04-09T07:50:22;102292.59;;;9.87;100.00
11985;BME280;6052;53.246;10.368;2023-04-09T07:52:52;102288.50;;;9.91;100.00
11985;BME280;6052;53.246;10.368;2023-04-09T07:55:24;102293.56;;;10.00;100.00
11985;BME280;6052;53.246;10.368;2023-04-09T07:57:53;102291.97;;;10.06;100.00
11985;BME280;6052;53.246;10.368;2023-04-09T08:00:23;102287.28;;;10.14;100.00
11985;BME280;6052;53.246;10.368;2023-04-09T08:02:53;102285.28;;;10.02;100.00
11985;BME280;6052;53.246;10.368;2023-04-09T08:05:23;102292.66;;;9.93;100.00
11985;BME280;6052;53.246;10.368;2023-04-09T08:07:53;102286.72;;;9.98;100.00
11985;BME280;6052;53.246;10.368;2023-04-09T08:10:25;102292.66;;;9.93;100.00
11985;BME280;6052;53.246;10.368;2023-04-09T08:12:55;102290.16;;;9.92;100.00
11985;BME280;6052;53.246;10.368;2023-04-09T08:15:24;102290.03;;;10.00;100.00
11985;BME280;6052;53.246;10.368;2023-04-09T08:17:53;102290.13;;;10.06;100.00
11985;BME280;6052;53.246;10.368;2023-04-09T08:20:23;102283.44;;;10.02;100.00
11985;BME280;6052;53.246;10.368;2023-04-09T08:22:53;102287.97;;;10.02;100.00
11985;BME280;6052;53.246;10.368;2023-04-09T08:25:25;102290.31;;;10.05;100.00
11985;BME280;6052;53.246;10.368;2023-04-09T08:27:55;102285.44;;;10.15;100.00
11985;BME280;6052;53.246;10.368;2023-04-09T08:30:24;102291.59;;;10.09;100.00
11985;BME280;6052;53.246;10.368;2023-04-09T08:32:53;102286.91;;;9.96;100.00
11985;BME280;6052;53.246;10.368;2023-04-09T08:35:23;102289.00;;;10.01;100.00
11985;BME280;6052;53.246;10.368;2023-04-09T08:37:54;102284.44;;;9.95;100.00
11985;BME280;6052;53.246;10.368;2023-04-09T08:40:26;102295.22;;;10.01;100.00
11985;BME280;6052;53.246;10.368;2023-04-09T08:42:56;102296.75;;;9.89;100.00
11985;BME280;6052;53.246;10.368;2023-04-09T08:45:27;102295.41;;;10.00;100.00
11985;BME280;6052;53.246;10.368;2023-04-09T08:47:56;102297.78;;;10.09;100.00
11985;BME280;6052;53.246;10.368;2023-04-09T08:50:30;102290.38;;;10.11;100.00
11985;BME280;6052;53.246;10.368;2023-04-09T08:53:02;102285.94;;;10.04;100.00
11985;BME280;6052;53.246;10.368;2023-04-09T08:55:34;102293.06;;;10.11;100.00
11985;BME280;6052;53.246;10.368;2023-04-09T08:58:04;102293.78;;;10.26;100.00
11985;BME280;6052;53.246;10.368;2023-04-09T09:00:36;102298.47;;;10.18;100.00
11985;BME280;6052;53.246;10.368;2023-04-09T09:03:07;102299.78;;;10.28;100.00
11985;BME280;6052;53.246;10.368;2023-04-09T09:05:39;102295.00;;;10.24;100.00
11985;BME280;6052;53.246;10.368;2023-04-09T09:08:11;102297.16;;;10.35;100.00
11985;BME280;6052;53.246;10.368;2023-04-09T09:10:44;102295.13;;;10.37;100.00
11985;BME280;6052;53.246;10.368;2023-04-09T09:13:18;102299.28;;;10.46;100.00
11985;BME280;6052;53.246;10.368;2023-04-09T09:15:49;102295.38;;;10.48;100.00
11985;BME280;6052;53.246;10.368;2023-04-09T09:18:21;102292.91;;;10.47;100.00
11985;BME280;6052;53.246;10.368;2023-04-09T09:21:11;102298.53;;;10.58;100.00
11985;BME280;6052;53.246;10.368;2023-04-09T09:23:41;102301.56;;;10.49;100.00
11985;BME280;6052;53.246;10.368;2023-04-09T09:26:15;102293.38;;;10.57;100.00
11985;BME280;6052;53.246;10.368;2023-04-09T09:28:45;102300.31;;;10.45;100.00
11985;BME280;6052;53.246;10.368;2023-04-09T09:31:17;102299.59;;;10.64;100.00
11985;BME280;6052;53.246;10.368;2023-04-09T09:33:47;102293.44;;;10.70;100.00
11985;BME280;6052;53.246;10.368;2023-04-09T09:36:30;102298.00;;;10.69;100.00
11985;BME280;6052;53.246;10.368;2023-04-09T09:39:00;102292.59;;;10.63;100.00
11985;BME280;6052;53.246;10.368;2023-04-09T09:41:39;102294.00;;;10.59;100.00
11985;BME280;6052;53.246;10.368;2023-04-09T09:44:09;102287.78;;;10.58;100.00
11985;BME280;6052;53.246;10.368;2023-04-09T09:46:40;102291.56;;;10.64;100.00
11985;BME280;6052;53.246;10.368;2023-04-09T09:49:10;102282.88;;;10.62;100.00
11985;BME280;6052;53.246;10.368;2023-04-09T09:51:40;102281.72;;;10.84;100.00
11985;BME280;6052;53.246;10.368;2023-04-09T09:54:09;102283.50;;;10.64;100.00
11985;BME280;6052;53.246;10.368;2023-04-09T09:56:42;102286.84;;;10.72;100.00
11985;BME280;6052;53.246;10.368;2023-04-09T09:59:16;102280.84;;;10.70;100.00
11985;BME280;6052;53.246;10.368;2023-04-09T10:01:52;102289.31;;;10.74;100.00
11985;BME280;6052;53.246;10.368;2023-04-09T10:04:28;102283.97;;;10.74;100.00
11985;BME280;6052;53.246;10.368;2023-04-09T10:06:58;102277.78;;;10.80;100.00
11985;BME280;6052;53.246;10.368;2023-04-09T10:09:29;102279.69;;;10.86;100.00
11985;BME280;6052;53.246;10.368;2023-04-09T10:12:03;102276.41;;;10.90;100.00
11985;BME280;6052;53.246;10.368;2023-04-09T10:14:35;102273.09;;;10.88;100.00
11985;BME280;6052;53.246;10.368;2023-04-09T10:17:05;102271.63;;;10.86;100.00
11985;BME280;6052;53.246;10.368;2023-04-09T10:19:40;102270.06;;;11.11;100.00
11985;BME280;6052;53.246;10.368;2023-04-09T10:22:14;102267.63;;;11.16;100.00
11985;BME280;6052;53.246;10.368;2023-04-09T10:24:45;102269.00;;;11.05;100.00
11985;BME280;6052;53.246;10.368;2023-04-09T10:27:18;102265.19;;;11.47;100.00
11985;BME280;6052;53.246;10.368;2023-04-09T10:29:48;102264.59;;;11.51;100.00
11985;BME280;6052;53.246;10.368;2023-04-09T10:32:18;102258.38;;;11.51;100.00
11985;BME280;6052;53.246;10.368;2023-04-09T10:34:56;102263.72;;;11.31;100.00
11985;BME280;6052;53.246;10.368;2023-04-09T10:37:26;102252.75;;;11.33;100.00
11985;BME280;6052;53.246;10.368;2023-04-09T10:39:56;102262.06;;;11.30;100.00
11985;BME280;6052;53.246;10.368;2023-04-09T10:42:31;102257.97;;;11.41;100.00
11985;BME280;6052;53.246;10.368;2023-04-09T10:45:07;102250.50;;;11.49;100.00
11985;BME280;6052;53.246;10.368;2023-04-09T10:47:38;102249.72;;;11.62;100.00
11985;BME280;6052;53.246;10.368;2023-04-09T10:50:15;102249.53;;;11.70;100.00
11985;BME280;6052;53.246;10.368;2023-04-09T10:52:45;102241.06;;;11.99;100.00
11985;BME280;6052;53.246;10.368;2023-04-09T10:55:34;102248.53;;;11.84;100.00
11985;BME280;6052;53.246;10.368;2023-04-09T10:58:08;102237.13;;;11.95;100.00
11985;BME280;6052;53.246;10.368;2023-04-09T11:00:40;102237.66;;;12.36;100.00
11985;BME280;6052;53.246;10.368;2023-04-09T11:03:21;102231.09;;;12.06;100.00
11985;BME280;6052;53.246;10.368;2023-04-09T11:05:54;102229.38;;;12.44;100.00
11985;BME280;6052;53.246;10.368;2023-04-09T11:08:29;102227.16;;;12.15;100.00
11985;BME280;6052;53.246;10.368;2023-04-09T11:10:59;102220.91;;;12.34;100.00
11985;BME280;6052;53.246;10.368;2023-04-09T11:13:32;102216.78;;;12.25;100.00
11985;BME280;6052;53.246;10.368;2023-04-09T11:16:01;102212.94;;;12.65;100.00
11985;BME280;6052;53.246;10.368;2023-04-09T11:18:33;102211.19;;;12.26;100.00
11985;BME280;6052;53.246;10.368;2023-04-09T11:21:03;102214.44;;;12.54;100.00
11985;BME280;6052;53.246;10.368;2023-04-09T11:23:33;102214.06;;;12.38;100.00
11985;BME280;6052;53.246;10.368;2023-04-09T11:26:03;102207.72;;;12.70;100.00
11985;BME280;6052;53.246;10.368;2023-04-09T11:28:36;102210.84;;;13.17;100.00
11985;BME280;6052;53.246;10.368;2023-04-09T11:31:05;102202.31;;;12.76;100.00
11985;BME280;6052;53.246;10.368;2023-04-09T11:33:34;102200.88;;;12.74;100.00
11985;BME280;6052;53.246;10.368;2023-04-09T11:36:04;102206.78;;;13.02;100.00
11985;BME280;6052;53.246;10.368;2023-04-09T11:38:35;102199.31;;;13.04;100.00
11985;BME280;6052;53.246;10.368;2023-04-09T11:41:05;102198.78;;;13.75;100.00
11985;BME280;6052;53.246;10.368;2023-04-09T11:43:41;102192.44;;;13.39;98.62
11985;BME280;6052;53.246;10.368;2023-04-09T11:46:10;102198.09;;;13.31;100.00
11985;BME280;6052;53.246;10.368;2023-04-09T11:48:40;102196.63;;;13.35;100.00
11985;BME280;6052;53.246;10.368;2023-04-09T11:51:09;102193.41;;;13.20;98.28
11985;BME280;6052;53.246;10.368;2023-04-09T11:53:38;102190.19;;;13.60;100.00
11985;BME280;6052;53.246;10.368;2023-04-09T11:56:09;102195.59;;;13.05;97.82
11985;BME280;6052;53.246;10.368;2023-04-09T11:58:44;102184.38;;;12.95;95.01
11985;BME280;6052;53.246;10.368;2023-04-09T12:01:15;102191.03;;;12.92;94.41
11985;BME280;6052;53.246;10.368;2023-04-09T12:03:51;102188.44;;;13.17;97.39
11985;BME280;6052;53.246;10.368;2023-04-09T12:06:21;102177.00;;;13.52;99.60
11985;BME280;6052;53.246;10.368;2023-04-09T12:08:51;102190.88;;;13.56;100.00
11985;BME280;6052;53.246;10.368;2023-04-09T12:11:26;102188.75;;;13.33;94.72
11985;BME280;6052;53.246;10.368;2023-04-09T12:14:03;102183.69;;;13.68;98.50
11985;BME280;6052;53.246;10.368;2023-04-09T12:16:33;102182.13;;;13.29;95.40
11985;BME280;6052;53.246;10.368;2023-04-09T12:19:05;102175.22;;;13.40;94.81
11985;BME280;6052;53.246;10.368;2023-04-09T12:21:44;102177.03;;;13.46;93.74
11985;BME280;6052;53.246;10.368;2023-04-09T12:24:15;102177.16;;;13.57;94.61
11985;BME280;6052;53.246;10.368;2023-04-09T12:26:45;102183.16;;;13.84;100.00
11985;BME280;6052;53.246;10.368;2023-04-09T12:29:18;102181.63;;;13.39;92.17
11985;BME280;6052;53.246;10.368;2023-04-09T12:31:48;102167.09;;;13.46;91.26
11985;BME280;6052;53.246;10.368;2023-04-09T12:34:19;102167.81;;;13.78;90.95
11985;BME280;6052;53.246;10.368;2023-04-09T12:36:48;102171.31;;;13.60;90.90
11985;BME280;6052;53.246;10.368;2023-04-09T12:39:18;102169.88;;;13.58;88.58
11985;BME280;6052;53.246;10.368;2023-04-09T12:41:47;102176.44;;;13.44;86.15
11985;BME280;6052;53.246;10.368;2023-04-09T12:44:22;102172.91;;;13.68;87.68
11985;BME280;6052;53.246;10.368;2023-04-09T12:46:51;102167.84;;;13.53;87.76
11985;BME280;6052;53.246;10.368;2023-04-09T12:49:21;102164.56;;;13.51;87.28
11985;BME280;6052;53.246;10.368;2023-04-09T12:51:51;102155.63;;;13.51;86.56
11985;BME280;6052;53.246;10.368;2023-04-09T12:54:20;102156.47;;;13.51;86.73
11985;BME280;6052;53.246;10.368;2023-04-09T12:56:49;102153.31;;;13.79;90.32
11985;BME280;6052;53.246;10.368;2023-04-09T12:59:19;102147.06;;;13.78;87.96
11985;BME280;6052;53.246;10.368;2023-04-09T13:01:50;102146.25;;;13.53;85.46